Time;durP1;ratioP1;P1;durP2;ratioP2;P2;SDS_P1;SDS_P2;PMS_P1;PMS_P2;Temp;Humidity;BMP_temperature;BMP_pressure;BME280_temperature;BME280_humidity;BME280_pressure;Samples;Min_cycle;Max_cycle;Signal;HPM_P1;HPM_P2
2022/12/12 00:02:23;;;;;;;0.90;0.90;;;;;;;;;;6208780;22;20182;-76
2022/12/12 00:04:49;;;;;;;0.90;0.90;;;;;;;;;;6209493;23;20158;-76
2022/12/12 00:07:15;;;;;;;1.00;1.00;;;;;;;;;;6209472;23;20151;-74
2022/12/12 00:09:41;;;;;;;0.90;0.90;;;;;;;;;;6209644;23;20465;-77
2022/12/12 00:12:07;;;;;;;0.83;0.83;;;;;;;;;;6209118;23;20234;-76
2022/12/12 00:14:33;;;;;;;1.00;1.00;;;;;;;;;;6209344;22;20191;-76
2022/12/12 00:16:59;;;;;;;1.00;1.00;;;;;;;;;;6208998;23;20216;-76
2022/12/12 00:19:25;;;;;;;0.90;0.90;;;;;;;;;;6208984;23;20527;-76
2022/12/12 00:21:51;;;;;;;0.80;0.80;;;;;;;;;;6209408;23;20618;-77
2022/12/12 00:24:17;;;;;;;0.90;0.90;;;;;;;;;;6208766;22;20246;-76
2022/12/12 00:26:43;;;;;;;0.90;0.90;;;;;;;;;;6208804;23;20194;-74
2022/12/12 00:29:10;;;;;;;0.90;0.90;;;;;;;;;;6209594;23;20159;-77
2022/12/12 00:31:36;;;;;;;0.90;0.90;;;;;;;;;;6209692;23;20187;-77
2022/12/12 00:34:02;;;;;;;0.97;0.97;;;;;;;;;;6208635;22;20194;-76
2022/12/12 00:36:29;;;;;;;0.90;0.90;;;;;;;;;;6209233;23;20152;-77
2022/12/12 00:38:56;;;;;;;0.90;0.90;;;;;;;;;;6209376;23;20207;-76
2022/12/12 00:41:22;;;;;;;0.90;0.90;;;;;;;;;;6209440;23;20155;-77
2022/12/12 00:43:48;;;;;;;0.90;0.90;;;;;;;;;;6210201;22;20259;-76
2022/12/12 00:46:15;;;;;;;0.90;0.90;;;;;;;;;;6211884;23;20159;-74
2022/12/12 00:48:41;;;;;;;0.90;0.90;;;;;;;;;;6210398;23;20182;-76
2022/12/12 00:51:08;;;;;;;0.87;0.87;;;;;;;;;;6210229;23;20151;-76
2022/12/12 00:53:35;;;;;;;0.83;0.83;;;;;;;;;;6209458;22;20240;-76
2022/12/12 00:56:01;;;;;;;0.80;0.80;;;;;;;;;;6210268;23;20151;-76
2022/12/12 00:58:27;;;;;;;0.90;0.90;;;;;;;;;;6209424;23;20181;-77
2022/12/12 01:00:53;;;;;;;1.00;1.00;;;;;;;;;;6209438;23;20159;-77
2022/12/12 01:03:20;;;;;;;1.00;1.00;;;;;;;;;;6208373;22;20646;-76
2022/12/12 01:05:46;;;;;;;0.90;0.90;;;;;;;;;;6209439;23;20647;-77
2022/12/12 01:08:12;;;;;;;0.90;0.90;;;;;;;;;;6209628;23;20247;-76
2022/12/12 01:10:38;;;;;;;0.80;0.80;;;;;;;;;;6210221;23;20481;-76
2022/12/12 01:13:04;;;;;;;0.80;0.80;;;;;;;;;;6209012;22;20250;-76
2022/12/12 01:15:30;;;;;;;0.90;0.90;;;;;;;;;;6208898;23;20183;-77
2022/12/12 01:17:56;;;;;;;0.90;0.90;;;;;;;;;;6208728;23;20151;-76
2022/12/12 01:20:24;;;;;;;0.90;0.90;;;;;;;;;;6208912;23;20186;-76
2022/12/12 01:22:50;;;;;;;1.00;1.00;;;;;;;;;;6208426;22;20178;-74
2022/12/12 01:25:17;;;;;;;1.00;1.00;;;;;;;;;;6208694;23;20594;-76
2022/12/12 01:27:44;;;;;;;0.80;0.80;;;;;;;;;;6208229;23;20178;-76
2022/12/12 01:30:14;;;;;;;0.90;0.90;;;;;;;;;;6209151;23;20151;-76
2022/12/12 01:32:40;;;;;;;1.00;1.00;;;;;;;;;;6209597;22;20177;-76
2022/12/12 01:35:07;;;;;;;0.97;0.97;;;;;;;;;;6209661;23;20226;-75
2022/12/12 01:37:34;;;;;;;1.00;1.00;;;;;;;;;;6210379;23;20151;-76
2022/12/12 01:40:00;;;;;;;0.80;0.80;;;;;;;;;;6210216;23;20226;-76
2022/12/12 01:42:27;;;;;;;0.90;0.90;;;;;;;;;;6209374;22;20148;-76
2022/12/12 01:44:53;;;;;;;0.83;0.83;;;;;;;;;;6210155;23;20151;-76
2022/12/12 01:47:21;;;;;;;1.00;1.00;;;;;;;;;;6209695;23;20618;-76
2022/12/12 01:49:53;;;;;;;0.90;0.90;;;;;;;;;;6210010;23;20223;-76
2022/12/12 01:52:21;;;;;;;0.90;0.90;;;;;;;;;;6209210;22;20566;-76
2022/12/12 01:54:49;;;;;;;0.90;0.90;;;;;;;;;;6209612;23;20251;-76
2022/12/12 01:57:22;;;;;;;0.90;0.90;;;;;;;;;;6210017;23;20162;-76
2022/12/12 01:59:48;;;;;;;0.90;0.90;;;;;;;;;;6209726;23;20212;-76
2022/12/12 02:02:14;;;;;;;0.90;0.90;;;;;;;;;;6209378;23;20156;-76
2022/12/12 02:04:41;;;;;;;0.93;0.93;;;;;;;;;;6210140;22;20646;-76
2022/12/12 02:07:07;;;;;;;0.90;0.90;;;;;;;;;;6209748;23;20172;-76
2022/12/12 02:09:33;;;;;;;0.90;0.90;;;;;;;;;;6209951;23;20159;-76
2022/12/12 02:11:59;;;;;;;0.90;0.90;;;;;;;;;;6209400;23;20186;-76
2022/12/12 02:14:32;;;;;;;0.90;0.90;;;;;;;;;;6209741;22;20646;-76
2022/12/12 02:17:04;;;;;;;1.00;1.00;;;;;;;;;;6210075;23;20201;-76
2022/12/12 02:19:30;;;;;;;1.00;1.00;;;;;;;;;;6210058;23;20152;-75
2022/12/12 02:22:08;;;;;;;1.00;1.00;;;;;;;;;;6209617;23;20579;-76
2022/12/12 02:24:38;;;;;;;1.00;1.00;;;;;;;;;;6209845;22;20177;-75
2022/12/12 02:27:04;;;;;;;0.93;0.93;;;;;;;;;;6209538;23;20182;-76
2022/12/12 02:29:48;;;;;;;0.90;0.90;;;;;;;;;;6209583;23;20156;-76
2022/12/12 02:32:21;;;;;;;0.90;0.90;;;;;;;;;;6209047;23;20676;-76
2022/12/12 02:34:56;;;;;;;0.97;0.97;;;;;;;;;;6209926;23;20565;-76
2022/12/12 02:37:22;;;;;;;0.90;0.90;;;;;;;;;;6210877;23;20538;-76
2022/12/12 02:40:06;;;;;;;0.90;0.90;;;;;;;;;;6211904;23;20174;-76
2022/12/12 02:42:41;;;;;;;1.03;1.03;;;;;;;;;;6209196;22;20144;-76
2022/12/12 02:45:16;;;;;;;0.90;0.90;;;;;;;;;;6209634;23;20490;-76
2022/12/12 02:47:45;;;;;;;1.00;1.00;;;;;;;;;;6209879;23;20147;-76
2022/12/12 02:50:13;;;;;;;0.90;0.90;;;;;;;;;;6209866;23;20183;-76
2022/12/12 02:52:41;;;;;;;1.00;1.00;;;;;;;;;;6209114;22;20293;-76
2022/12/12 02:55:07;;;;;;;0.90;0.90;;;;;;;;;;6209720;23;20236;-77
2022/12/12 02:57:33;;;;;;;0.87;0.87;;;;;;;;;;6209775;23;20152;-76
2022/12/12 03:00:07;;;;;;;1.00;1.00;;;;;;;;;;6209674;23;20166;-77
2022/12/12 03:02:52;;;;;;;0.90;0.90;;;;;;;;;;6208966;22;20158;-76
2022/12/12 03:08:28;;;;;;;1.00;1.00;;;;;;;;;;6303235;22;20173;-76
2022/12/12 03:11:01;;;;;;;1.00;1.00;;;;;;;;;;6303850;22;20490;-76
2022/12/12 03:13:42;;;;;;;0.90;0.90;;;;;;;;;;6255887;22;20183;-76
2022/12/12 03:16:26;;;;;;;1.00;1.00;;;;;;;;;;6209893;23;20159;-76
2022/12/12 03:18:57;;;;;;;1.00;1.00;;;;;;;;;;6209405;23;20586;-76
2022/12/12 03:21:33;;;;;;;0.90;0.90;;;;;;;;;;6209847;23;20151;-76
2022/12/12 03:24:03;;;;;;;0.90;0.90;;;;;;;;;;6209067;22;20174;-76
2022/12/12 03:26:31;;;;;;;1.00;1.00;;;;;;;;;;6209332;23;20190;-76
2022/12/12 03:29:04;;;;;;;1.00;1.00;;;;;;;;;;6209667;23;20261;-76
2022/12/12 03:31:32;;;;;;;0.90;0.90;;;;;;;;;;6209950;23;20166;-76
2022/12/12 03:34:02;;;;;;;1.00;1.00;;;;;;;;;;6208900;22;20195;-76
2022/12/12 03:36:34;;;;;;;0.97;0.97;;;;;;;;;;6209609;23;20152;-75
2022/12/12 03:39:04;;;;;;;0.90;0.90;;;;;;;;;;6209638;23;20166;-75
2022/12/12 03:41:36;;;;;;;0.90;0.90;;;;;;;;;;6209734;23;20144;-75
2022/12/12 03:44:05;;;;;;;0.90;0.90;;;;;;;;;;6208545;22;20308;-75
2022/12/12 03:46:43;;;;;;;1.00;1.00;;;;;;;;;;6209099;23;20238;-76
2022/12/12 03:49:08;;;;;;;0.90;0.90;;;;;;;;;;6209135;23;20548;-76
2022/12/12 03:51:39;;;;;;;0.90;0.90;;;;;;;;;;6209483;23;20173;-76
2022/12/12 03:54:12;;;;;;;1.00;1.00;;;;;;;;;;6208412;22;20583;-76
2022/12/12 03:56:44;;;;;;;0.90;0.90;;;;;;;;;;6209534;23;20158;-76
2022/12/12 03:59:12;;;;;;;0.93;0.93;;;;;;;;;;6209213;23;20647;-76
2022/12/12 04:01:46;;;;;;;1.00;1.00;;;;;;;;;;6209158;23;20186;-76
2022/12/12 04:04:21;;;;;;;1.00;1.00;;;;;;;;;;6208910;22;20232;-76
2022/12/12 04:06:51;;;;;;;0.97;0.97;;;;;;;;;;6209494;23;20158;-76
2022/12/12 04:15:00;;;;;;;1.00;1.00;;;;;;;;;;6209208;23;20652;-75
2022/12/12 04:17:44;;;;;;;1.00;1.00;;;;;;;;;;6209362;23;20151;-75
2022/12/12 04:23:16;;;;;;;0.90;0.90;;;;;;;;;;6208612;22;20663;-75
2022/12/12 04:26:37;;;;;;;1.00;1.00;;;;;;;;;;6209010;23;20222;-76
2022/12/12 04:28:29;;;;;;;1.07;1.07;;;;;;;;;;6208917;23;20170;-75
2022/12/12 04:30:57;;;;;;;1.00;1.00;;;;;;;;;;6209211;23;20155;-75
2022/12/12 04:33:23;;;;;;;0.93;0.93;;;;;;;;;;6208277;22;20587;-77
2022/12/12 04:35:50;;;;;;;1.00;1.00;;;;;;;;;;6209281;23;20191;-75
2022/12/12 04:38:20;;;;;;;0.90;0.90;;;;;;;;;;6209343;23;20174;-74
2022/12/12 04:40:48;;;;;;;1.00;1.00;;;;;;;;;;6209351;23;20155;-75
2022/12/12 04:43:20;;;;;;;1.00;1.00;;;;;;;;;;6209131;22;20238;-75
2022/12/12 04:46:06;;;;;;;1.00;1.00;;;;;;;;;;6208662;23;20151;-74
2022/12/12 04:48:40;;;;;;;0.90;0.90;;;;;;;;;;6208982;23;20135;-74
2022/12/12 04:51:08;;;;;;;0.90;0.90;;;;;;;;;;6209259;23;20155;-75
2022/12/12 04:53:36;;;;;;;0.90;0.90;;;;;;;;;;6208160;22;20490;-76
2022/12/12 04:56:06;;;;;;;1.00;1.00;;;;;;;;;;6209235;23;20171;-74
2022/12/12 04:58:32;;;;;;;0.90;0.90;;;;;;;;;;6209195;23;20159;-75
2022/12/12 05:01:04;;;;;;;1.00;1.00;;;;;;;;;;6209156;23;20151;-74
2022/12/12 05:03:37;;;;;;;1.00;1.00;;;;;;;;;;6208063;22;20525;-75
2022/12/12 05:06:06;;;;;;;1.07;1.07;;;;;;;;;;6208277;23;20159;-73
2022/12/12 05:08:34;;;;;;;0.97;0.97;;;;;;;;;;6208829;23;20258;-73
2022/12/12 05:11:01;;;;;;;1.00;1.00;;;;;;;;;;6208819;23;20158;-74
2022/12/12 05:13:28;;;;;;;1.00;1.00;;;;;;;;;;6208470;22;20220;-74
2022/12/12 05:15:55;;;;;;;1.00;1.00;;;;;;;;;;6208727;23;20205;-73
2022/12/12 05:18:21;;;;;;;0.90;0.90;;;;;;;;;;6208708;23;20548;-74
2022/12/12 05:20:47;;;;;;;0.90;0.90;;;;;;;;;;6209100;23;20151;-73
2022/12/12 05:23:13;;;;;;;1.00;1.00;;;;;;;;;;6207877;22;20191;-73
2022/12/12 05:25:39;;;;;;;1.00;1.00;;;;;;;;;;6209059;23;20162;-73
2022/12/12 05:28:05;;;;;;;0.90;0.90;;;;;;;;;;6208616;23;20242;-74
2022/12/12 05:30:32;;;;;;;0.90;0.90;;;;;;;;;;6208802;23;20166;-73
2022/12/12 05:32:58;;;;;;;1.00;1.00;;;;;;;;;;6208107;22;20175;-74
2022/12/12 05:35:24;;;;;;;1.00;1.00;;;;;;;;;;6209430;23;20187;-73
2022/12/12 05:37:50;;;;;;;1.00;1.00;;;;;;;;;;6209892;23;20480;-73
2022/12/12 05:40:16;;;;;;;0.90;0.90;;;;;;;;;;6209170;23;20155;-74
2022/12/12 05:42:42;;;;;;;1.00;1.00;;;;;;;;;;6208650;22;20621;-73
2022/12/12 05:45:09;;;;;;;0.90;0.90;;;;;;;;;;6209377;23;20200;-74
2022/12/12 05:47:35;;;;;;;1.00;1.00;;;;;;;;;;6208661;23;20155;-75
2022/12/12 05:50:01;;;;;;;0.90;0.90;;;;;;;;;;6208944;23;20240;-73
2022/12/12 05:52:27;;;;;;;1.00;1.00;;;;;;;;;;6208235;22;20147;-73
2022/12/12 05:54:53;;;;;;;1.00;1.00;;;;;;;;;;6208613;23;20191;-74
2022/12/12 05:57:19;;;;;;;1.00;1.00;;;;;;;;;;6208986;23;20171;-73
2022/12/12 05:59:46;;;;;;;0.90;0.90;;;;;;;;;;6208284;23;20147;-74
2022/12/12 06:02:12;;;;;;;1.00;1.00;;;;;;;;;;6208068;23;20208;-74
2022/12/12 06:04:38;;;;;;;0.90;0.90;;;;;;;;;;6208128;22;20506;-74
2022/12/12 06:07:04;;;;;;;1.10;1.10;;;;;;;;;;6208523;23;20151;-74
2022/12/12 06:09:30;;;;;;;0.87;0.87;;;;;;;;;;6207986;23;20513;-73
2022/12/12 06:11:56;;;;;;;0.90;0.90;;;;;;;;;;6207935;23;20227;-74
2022/12/12 06:14:23;;;;;;;1.00;1.00;;;;;;;;;;6207969;22;20256;-73
2022/12/12 06:16:49;;;;;;;1.00;1.00;;;;;;;;;;6208727;23;20230;-74
2022/12/12 06:19:15;;;;;;;0.93;0.93;;;;;;;;;;6209871;23;20264;-74
2022/12/12 06:21:40;;;;;;;1.10;1.10;;;;;;;;;;6209922;23;20646;-74
2022/12/12 06:24:07;;;;;;;0.93;0.93;;;;;;;;;;6208802;22;20183;-73
2022/12/12 06:26:33;;;;;;;1.00;1.00;;;;;;;;;;6209770;23;20159;-75
2022/12/12 06:28:59;;;;;;;1.00;1.00;;;;;;;;;;6210590;23;20174;-74
2022/12/12 06:31:25;;;;;;;0.90;0.90;;;;;;;;;;6211671;23;20148;-74
2022/12/12 06:33:51;;;;;;;0.90;0.90;;;;;;;;;;6209743;22;20269;-74
2022/12/12 06:36:22;;;;;;;0.80;0.80;;;;;;;;;;6209747;23;20574;-73
2022/12/12 06:38:52;;;;;;;1.00;1.00;;;;;;;;;;6209493;23;20139;-73
2022/12/12 06:41:19;;;;;;;0.90;0.90;;;;;;;;;;6209801;23;20162;-73
2022/12/12 06:43:45;;;;;;;0.90;0.90;;;;;;;;;;6209017;22;20255;-74
2022/12/12 06:46:22;;;;;;;1.00;1.00;;;;;;;;;;6209783;23;20226;-74
2022/12/12 06:48:48;;;;;;;0.90;0.90;;;;;;;;;;6209798;23;20147;-74
2022/12/12 06:51:17;;;;;;;0.90;0.90;;;;;;;;;;6209793;23;20242;-74
2022/12/12 06:53:43;;;;;;;1.00;1.00;;;;;;;;;;6208891;22;20182;-74
2022/12/12 06:56:10;;;;;;;1.00;1.00;;;;;;;;;;6209396;23;20471;-74
2022/12/12 06:58:36;;;;;;;0.80;0.80;;;;;;;;;;6209381;23;20159;-76
2022/12/12 07:01:03;;;;;;;1.00;1.00;;;;;;;;;;6209056;23;20238;-74
2022/12/12 07:03:29;;;;;;;1.00;1.00;;;;;;;;;;6208414;22;20175;-74
2022/12/12 07:05:55;;;;;;;0.90;0.90;;;;;;;;;;6209647;23;20151;-73
2022/12/12 07:08:21;;;;;;;0.90;0.90;;;;;;;;;;6209745;23;20651;-73
2022/12/12 07:10:47;;;;;;;1.00;1.00;;;;;;;;;;6209450;23;20167;-74
2022/12/12 07:13:13;;;;;;;0.90;0.90;;;;;;;;;;6208575;22;20197;-74
2022/12/12 07:15:46;;;;;;;0.90;0.90;;;;;;;;;;6209490;23;20486;-74
2022/12/12 07:18:12;;;;;;;1.00;1.00;;;;;;;;;;6209550;23;20151;-74
2022/12/12 07:20:39;;;;;;;0.90;0.90;;;;;;;;;;6209304;23;20505;-74
2022/12/12 07:23:05;;;;;;;0.90;0.90;;;;;;;;;;6209001;22;20197;-75
2022/12/12 07:25:31;;;;;;;0.90;0.90;;;;;;;;;;6209303;23;20276;-74
2022/12/12 07:27:58;;;;;;;1.00;1.00;;;;;;;;;;6208490;23;20201;-76
2022/12/12 07:30:24;;;;;;;0.90;0.90;;;;;;;;;;6209363;23;20147;-76
2022/12/12 07:32:53;;;;;;;1.00;1.00;;;;;;;;;;6208966;22;20179;-75
2022/12/12 07:35:19;;;;;;;1.00;1.00;;;;;;;;;;6203909;23;20547;-74
2022/12/12 07:37:45;;;;;;;0.97;0.97;;;;;;;;;;6207462;23;20205;-74
2022/12/12 07:40:11;;;;;;;1.00;1.00;;;;;;;;;;6208439;23;20187;-74
2022/12/12 07:42:37;;;;;;;1.00;1.00;;;;;;;;;;6208467;22;20524;-74
2022/12/12 07:45:03;;;;;;;1.00;1.00;;;;;;;;;;6209548;23;20152;-75
2022/12/12 07:47:29;;;;;;;1.00;1.00;;;;;;;;;;6209468;23;20148;-75
2022/12/12 07:49:55;;;;;;;0.90;0.90;;;;;;;;;;6209642;23;20639;-75
2022/12/12 07:52:21;;;;;;;0.90;0.90;;;;;;;;;;6209170;22;20152;-75
2022/12/12 07:54:47;;;;;;;0.90;0.90;;;;;;;;;;6209597;23;20238;-75
2022/12/12 07:57:13;;;;;;;1.00;1.00;;;;;;;;;;6209347;23;20230;-74
2022/12/12 07:59:39;;;;;;;0.90;0.90;;;;;;;;;;6209682;23;20155;-77
2022/12/12 08:02:05;;;;;;;1.00;1.00;;;;;;;;;;6215806;23;20151;-77
2022/12/12 08:04:31;;;;;;;0.90;0.90;;;;;;;;;;6218304;22;20195;-77
2022/12/12 08:06:57;;;;;;;1.00;1.00;;;;;;;;;;6213584;23;20162;-78
2022/12/12 08:09:24;;;;;;;1.00;1.00;;;;;;;;;;6211064;23;20156;-78
2022/12/12 08:11:50;;;;;;;1.00;1.00;;;;;;;;;;6211026;23;20162;-75
2022/12/12 08:14:16;;;;;;;0.90;0.90;;;;;;;;;;6208735;22;20194;-75
2022/12/12 08:16:42;;;;;;;0.90;0.90;;;;;;;;;;6209358;23;20589;-74
2022/12/12 08:19:08;;;;;;;0.93;0.93;;;;;;;;;;6208892;23;20151;-74
2022/12/12 08:21:34;;;;;;;0.90;0.90;;;;;;;;;;6209443;23;20229;-75
2022/12/12 08:24:01;;;;;;;1.00;1.00;;;;;;;;;;6208709;22;20253;-74
2022/12/12 08:26:27;;;;;;;1.00;1.00;;;;;;;;;;6208979;23;20254;-75
2022/12/12 08:28:53;;;;;;;0.90;0.90;;;;;;;;;;6209409;23;20159;-75
2022/12/12 08:31:20;;;;;;;0.90;0.90;;;;;;;;;;6209391;23;20148;-75
2022/12/12 08:33:46;;;;;;;1.00;1.00;;;;;;;;;;6208114;22;20201;-75
2022/12/12 08:36:17;;;;;;;1.00;1.00;;;;;;;;;;6209284;23;20190;-75
2022/12/12 08:38:43;;;;;;;0.90;0.90;;;;;;;;;;6207814;23;20234;-75
2022/12/12 08:41:09;;;;;;;0.90;0.90;;;;;;;;;;6208216;23;20222;-76
2022/12/12 08:43:36;;;;;;;1.00;1.00;;;;;;;;;;6209029;22;20167;-75
2022/12/12 08:46:02;;;;;;;0.97;0.97;;;;;;;;;;6209458;23;20147;-76
2022/12/12 08:48:29;;;;;;;1.00;1.00;;;;;;;;;;6209128;23;20179;-75
2022/12/12 08:50:55;;;;;;;0.90;0.90;;;;;;;;;;6209340;23;20171;-75
2022/12/12 08:53:22;;;;;;;0.90;0.90;;;;;;;;;;6208205;22;20171;-76
2022/12/12 08:55:48;;;;;;;0.90;0.90;;;;;;;;;;6208499;23;20613;-75
2022/12/12 08:58:14;;;;;;;0.97;0.97;;;;;;;;;;6208878;23;20504;-76
2022/12/12 09:00:40;;;;;;;0.90;0.90;;;;;;;;;;6209440;23;20187;-76
2022/12/12 09:03:06;;;;;;;0.90;0.90;;;;;;;;;;6208660;22;20235;-76
2022/12/12 09:05:32;;;;;;;1.00;1.00;;;;;;;;;;6209415;23;20586;-76
2022/12/12 09:08:01;;;;;;;0.90;0.90;;;;;;;;;;6209344;23;20148;-76
2022/12/12 09:10:27;;;;;;;1.00;1.00;;;;;;;;;;6208297;23;20543;-76
2022/12/12 09:12:54;;;;;;;1.00;1.00;;;;;;;;;;6208455;22;20168;-76
2022/12/12 09:15:20;;;;;;;0.90;0.90;;;;;;;;;;6209506;23;20202;-76
2022/12/12 09:17:46;;;;;;;0.87;0.87;;;;;;;;;;6209189;23;20163;-75
2022/12/12 09:20:12;;;;;;;0.80;0.80;;;;;;;;;;6211194;23;20158;-77
2022/12/12 09:22:38;;;;;;;0.87;0.87;;;;;;;;;;6208642;22;20155;-76
2022/12/12 09:25:05;;;;;;;0.90;0.90;;;;;;;;;;6208650;23;20196;-77
2022/12/12 09:27:31;;;;;;;1.00;1.00;;;;;;;;;;6209544;23;20224;-76
2022/12/12 09:29:57;;;;;;;0.87;0.87;;;;;;;;;;6209668;23;20362;-76
2022/12/12 09:32:23;;;;;;;0.80;0.80;;;;;;;;;;6209141;22;20594;-77
2022/12/12 09:34:49;;;;;;;0.90;0.90;;;;;;;;;;6209755;23;20193;-77
2022/12/12 09:37:15;;;;;;;0.80;0.80;;;;;;;;;;6210883;23;20178;-77
2022/12/12 09:39:42;;;;;;;0.80;0.80;;;;;;;;;;6211142;23;20209;-76
2022/12/12 09:42:09;;;;;;;1.00;1.00;;;;;;;;;;6208853;23;20647;-76
2022/12/12 09:44:35;;;;;;;0.90;0.90;;;;;;;;;;6209525;22;20182;-76
2022/12/12 09:47:05;;;;;;;1.03;1.03;;;;;;;;;;6209914;23;20239;-77
2022/12/12 09:49:31;;;;;;;0.90;0.90;;;;;;;;;;6209918;23;20235;-77
2022/12/12 09:51:58;;;;;;;0.90;0.90;;;;;;;;;;6208300;23;21162;-77
2022/12/12 09:54:26;;;;;;;0.90;0.90;;;;;;;;;;6208773;22;20207;-77
2022/12/12 09:56:57;;;;;;;0.90;0.90;;;;;;;;;;6209763;23;20234;-77
2022/12/12 09:59:42;;;;;;;0.90;0.90;;;;;;;;;;6209933;23;20170;-76
2022/12/12 10:02:27;;;;;;;0.90;0.90;;;;;;;;;;6208890;23;20149;-77
2022/12/12 10:05:04;;;;;;;0.90;0.90;;;;;;;;;;6209460;23;20618;-77
2022/12/12 10:07:53;;;;;;;1.00;1.00;;;;;;;;;;6210503;23;20184;-76
2022/12/12 10:10:19;;;;;;;0.90;0.90;;;;;;;;;;6212679;23;20618;-77
2022/12/12 10:12:46;;;;;;;0.90;0.90;;;;;;;;;;6208138;22;20204;-76
2022/12/12 10:15:38;;;;;;;0.80;0.80;;;;;;;;;;6210173;23;20179;-77
2022/12/12 10:18:12;;;;;;;0.90;0.90;;;;;;;;;;6210926;23;20152;-77
2022/12/12 10:20:44;;;;;;;0.90;0.90;;;;;;;;;;6208762;23;20663;-76
2022/12/12 10:23:29;;;;;;;1.00;1.00;;;;;;;;;;6209132;22;20227;-77
2022/12/12 10:26:02;;;;;;;0.90;0.90;;;;;;;;;;6209143;23;20159;-77
2022/12/12 10:28:30;;;;;;;0.90;0.90;;;;;;;;;;6210144;23;20230;-76
2022/12/12 10:31:08;;;;;;;0.83;0.83;;;;;;;;;;6209445;23;20621;-76
2022/12/12 10:33:42;;;;;;;0.90;0.90;;;;;;;;;;6208769;22;20249;-77
2022/12/12 10:36:18;;;;;;;1.00;1.00;;;;;;;;;;6209556;23;20238;-78
2022/12/12 10:38:47;;;;;;;1.00;1.00;;;;;;;;;;6210262;23;20206;-76
2022/12/12 10:41:31;;;;;;;0.90;0.90;;;;;;;;;;6209801;23;20155;-76
2022/12/12 10:44:03;;;;;;;0.90;0.90;;;;;;;;;;6209142;22;20223;-77
2022/12/12 10:46:47;;;;;;;0.80;0.80;;;;;;;;;;6209709;23;20143;-76
2022/12/12 10:49:17;;;;;;;0.80;0.80;;;;;;;;;;6210619;23;20240;-77
2022/12/12 10:51:44;;;;;;;0.80;0.80;;;;;;;;;;6209502;23;20182;-76
2022/12/12 10:54:19;;;;;;;0.80;0.80;;;2.90;1.00;;;;;;6208574;22;20256;-76
2022/12/12 10:57:10;;;;;;;0.60;0.60;;;4.70;1.00;;;;;;6209102;23;20162;-77
2022/12/12 10:59:44;;;;;;;0.80;0.80;;;4.80;1.00;;;;;;6224089;23;20151;-77
2022/12/12 11:02:33;;;;;;;0.80;0.80;;;4.70;1.00;;;;;;6209123;23;20508;-77
2022/12/12 11:05:03;;;;;;;0.80;0.80;;;4.90;1.00;;;;;;6210489;23;20163;-78
2022/12/12 11:07:30;;;;;;;0.80;0.80;;;4.70;1.00;;;;;;6210837;23;20143;-77
2022/12/12 11:09:57;;;;;;;0.80;0.80;;;4.30;1.00;;;;;;6210979;23;20247;-77
2022/12/12 11:12:32;;;;;;;0.80;0.80;;;4.00;1.00;;;;;;6211249;22;20178;-77
2022/12/12 11:15:12;;;;;;;0.70;0.70;;;4.00;1.00;;;;;;6210573;23;20229;-78
2022/12/12 11:17:38;;;;;;;0.90;0.90;;;3.90;1.00;;;;;;6212016;22;20414;-81
2022/12/12 11:20:08;;;;;;;0.73;0.73;;;4.10;1.00;;;;;;6221200;23;20155;-83
2022/12/12 11:22:41;;;;;;;0.80;0.80;;;4.10;1.00;;;;;;6225100;22;20148;-82
2022/12/12 11:25:21;;;;;;;0.90;0.90;;;4.20;1.00;;;;;;6222662;23;20227;-82
2022/12/12 11:27:46;;;;;;;0.80;0.80;;;4.70;1.00;;;;;;6224286;23;20151;-82
2022/12/12 11:30:35;;;;;;;0.90;0.90;;;4.80;1.00;;;;;;6223443;23;20216;-80
2022/12/12 11:33:02;;;;;;;0.70;0.70;;;4.60;1.00;;;;;;6224369;22;20194;-80
2022/12/12 11:35:35;;;;;;;0.80;0.80;;;4.60;1.00;;;;;;6227147;23;20237;-79
2022/12/12 11:38:05;;;;;;;0.80;0.80;;;4.60;1.00;;;;;;6223917;23;20219;-83
2022/12/12 11:40:34;;;;;;;0.80;0.80;;;4.70;1.00;;;;;;6227039;23;20147;-78
2022/12/12 11:43:23;;;;;;;0.90;0.90;;;4.70;1.00;;;;;;6227782;22;20632;-80
2022/12/12 11:46:03;;;;;;;0.80;0.80;;;5.00;1.00;;;;;;6223449;23;20155;-80
2022/12/12 11:48:36;;;;;;;0.80;0.80;;;;;;;;;;6228542;23;20162;-79
2022/12/12 11:51:05;;;;;;;0.70;0.70;;;;;;;;;;6224082;23;20155;-79
2022/12/12 11:53:39;;;;;;;0.80;0.80;;;;;;;;;;6225051;22;20651;-80
2022/12/12 11:56:11;;;;;;;0.70;0.70;;;;;;;;;;6229912;23;20269;-79
2022/12/12 11:58:42;;;;;;;0.80;0.80;;;;;;;;;;6229595;23;20147;-79
2022/12/12 12:01:15;;;;;;;0.90;0.90;;;;;;;;;;6228593;23;20219;-78
2022/12/12 12:03:56;;;;;;;0.73;0.73;;;;;;;;;;6227931;22;20171;-80
2022/12/12 12:06:34;;;;;;;0.77;0.77;;;;;;;;;;6225301;23;20210;-77
2022/12/12 12:09:19;;;;;;;0.63;0.63;;;;;;;;;;6222642;23;20150;-80
2022/12/12 12:11:45;;;;;;;0.60;0.60;;;;;;;;;;6227546;23;20147;-80
2022/12/12 12:14:20;;;;;;;0.60;0.60;;;;;;;;;;6227117;22;20198;-80
2022/12/12 12:16:55;;;;;;;0.50;0.50;;;;;;;;;;6223043;23;20147;-80
2022/12/12 12:19:27;;;;;;;0.70;0.70;;;;;;;;;;6224296;23;20197;-79
2022/12/12 12:22:02;;;;;;;0.60;0.60;;;;;;;;;;6225218;23;20222;-80
2022/12/12 12:24:47;;;;;;;0.60;0.60;;;;;;;;;;6221879;22;20558;-80
2022/12/12 12:27:13;;;;;;;0.53;0.53;;;;;;;;;;6219964;23;20151;-79
2022/12/12 12:29:38;;;;;;;0.60;0.60;;;;;;;;;;6223369;23;20166;-82
2022/12/12 12:32:13;;;;;;;0.50;0.50;;;;;;;;;;6222176;23;20186;-78
2022/12/12 12:34:39;;;;;;;0.50;0.50;;;;;;;;;;6224620;22;20198;-81
2022/12/12 12:37:24;;;;;;;0.60;0.60;;;;;;;;;;6226581;23;20222;-79
2022/12/12 12:39:59;;;;;;;0.60;0.60;;;;;;;;;;6224135;23;20182;-80
2022/12/12 12:42:34;;;;;;;0.60;0.60;;;;;;;;;;6224888;22;20147;-78
2022/12/12 12:45:00;;;;;;;0.60;0.60;;;;;;;;;;6225083;23;20171;-80
2022/12/12 12:47:31;;;;;;;0.70;0.70;;;;;;;;;;6223226;23;20185;-78
2022/12/12 12:50:17;;;;;;;0.60;0.60;;;;;;;;;;6220461;23;20219;-79
2022/12/12 12:53:03;;;;;;;0.60;0.60;;;;;;;;;;6229630;22;20168;-79
2022/12/12 12:55:34;;;;;;;0.50;0.50;;;;;;;;;;6230206;23;20233;-78
2022/12/12 12:58:02;;;;;;;0.60;0.60;;;;;;;;;;6215633;23;20497;-78
2022/12/12 13:00:29;;;;;;;0.60;0.60;;;;;;;;;;6216430;23;20159;-79
2022/12/12 13:03:01;;;;;;;0.70;0.70;;;;;;;;;;6217110;22;20175;-78
2022/12/12 13:05:27;;;;;;;0.60;0.60;;;;;;;;;;6215321;23;20151;-77
2022/12/12 13:08:01;;;;;;;0.70;0.70;;;;;;;;;;6218297;23;20151;-79
2022/12/12 13:10:28;;;;;;;0.60;0.60;;;;;;;;;;6216683;23;20152;-79
2022/12/12 13:13:06;;;;;;;0.70;0.70;;;;;;;;;;6216826;22;20225;-78
2022/12/12 13:15:38;;;;;;;0.50;0.50;;;;;;;;;;6215558;23;20184;-78
2022/12/12 13:18:08;;;;;;;0.80;0.80;;;;;;;;;;6220967;23;20173;-79
2022/12/12 13:20:35;;;;;;;0.60;0.60;;;;;;;;;;6222982;23;20161;-80
2022/12/12 13:23:12;;;;;;;0.70;0.70;;;;;;;;;;6227765;22;20702;-78
2022/12/12 13:25:44;;;;;;;0.67;0.67;;;;;;;;;;6217461;23;20150;-76
2022/12/12 13:28:13;;;;;;;0.60;0.60;;;;;;;;;;6214608;23;20165;-79
2022/12/12 13:30:45;;;;;;;0.70;0.70;;;;;;;;;;6223667;23;20159;-78
2022/12/12 13:33:20;;;;;;;0.70;0.70;;;;;;;;;;6220229;22;20190;-78
2022/12/12 13:35:53;;;;;;;0.70;0.70;;;;;;;;;;6221870;23;20189;-79
2022/12/12 13:38:25;;;;;;;0.70;0.70;;;;;;;;;;6221323;23;20152;-79
2022/12/12 13:40:56;;;;;;;0.70;0.70;;;;;;;;;;6227097;22;20151;-79
2022/12/12 13:43:37;;;;;;;0.70;0.70;;;;;;;;;;6221376;22;20247;-79
2022/12/12 13:46:19;;;;;;;0.70;0.70;;;;;;;;;;6221028;23;20210;-80
2022/12/12 13:48:47;;;;;;;0.80;0.80;;;;;;;;;;6222729;23;20211;-79
2022/12/12 13:51:33;;;;;;;0.67;0.67;;;;;;;;;;6222461;23;20166;-79
2022/12/12 13:54:10;;;;;;;0.80;0.80;;;;;;;;;;6221963;22;20171;-79
2022/12/12 13:56:37;;;;;;;0.80;0.80;;;;;;;;;;6222240;23;20155;-79
2022/12/12 13:59:04;;;;;;;0.80;0.80;;;;;;;;;;6221280;23;20178;-81
2022/12/12 14:01:29;;;;;;;0.70;0.70;;;;;;;;;;6221912;23;20148;-79
2022/12/12 14:03:56;;;;;;;0.70;0.70;;;;;;;;;;6221557;22;20304;-79
2022/12/12 14:06:22;;;;;;;0.80;0.80;;;;;;;;;;6222266;23;20151;-82
2022/12/12 14:08:49;;;;;;;0.70;0.70;;;;;;;;;;6221420;23;20175;-79
2022/12/12 14:11:32;;;;;;;0.80;0.80;;;;;;;;;;6221513;23;20235;-80
2022/12/12 14:14:07;;;;;;;0.70;0.70;;;;;;;;;;6217589;22;20558;-80
2022/12/12 14:16:33;;;;;;;0.60;0.60;;;;;;;;;;6220344;23;20165;-79
2022/12/12 14:19:07;;;;;;;0.70;0.70;;;;;;;;;;6221264;23;20229;-78
2022/12/12 14:21:37;;;;;;;0.70;0.70;;;;;;;;;;6219025;23;20147;-79
2022/12/12 14:24:22;;;;;;;0.70;0.70;;;;;;;;;;6217054;22;20266;-80
2022/12/12 14:26:49;;;;;;;0.80;0.80;;;;;;;;;;6221096;23;20170;-80
2022/12/12 14:29:15;;;;;;;0.70;0.70;;;;;;;;;;6221943;23;20243;-78
2022/12/12 14:31:43;;;;;;;0.80;0.80;;;;;;;;;;6220565;23;20151;-79
2022/12/12 14:34:28;;;;;;;0.70;0.70;;;;;;;;;;6222379;22;20282;-80
2022/12/12 14:37:21;;;;;;;0.80;0.80;;;;;;;;;;6220593;23;20156;-81
2022/12/12 14:40:06;;;;;;;0.60;0.60;;;;;;;;;;6220778;23;20151;-80
2022/12/12 14:42:36;;;;;;;0.70;0.70;;;;;;;;;;6223106;22;20158;-81
2022/12/12 14:45:22;;;;;;;0.80;0.80;;;;;;;;;;6223353;23;20144;-79
2022/12/12 14:47:48;;;;;;;0.90;0.90;;;;;;;;;;6221735;23;20147;-79
2022/12/12 14:50:16;;;;;;;0.80;0.80;;;;;;;;;;6224699;23;20186;-79
2022/12/12 14:52:42;;;;;;;0.90;0.90;;;;;;;;;;6223330;22;20506;-79
2022/12/12 14:55:14;;;;;;;0.90;0.90;;;;;;;;;;6221934;23;20199;-79
2022/12/12 14:57:40;;;;;;;0.80;0.80;;;5.50;1.00;;;;;;6224973;23;20155;-79
2022/12/12 15:00:15;;;;;;;0.90;0.90;;;;;;;;;;6220357;23;20523;-80
2022/12/12 15:02:46;;;;;;;1.00;1.00;;;;;;;;;;6220414;22;20550;-78
2022/12/12 15:05:13;;;;;;;0.90;0.90;;;;;;;;;;6223452;23;20477;-79